Pisinemo, Arizona
Current Conditions -  °F | °C
As of 7:45 PM on Thursday 30 Oct 2014 (Local Time) from KRYN Reporting Station
Clear Clear  
Wind Chill: 77°   Ceiling: Unl
Heat Index: 78°   Visibility: 10mi
Dew Point: 43°   Wind: 5mph
Humidity: 29%   Direction: 180°S
Pressure: 30.01"   Gusts: NA
Location:  32.0925°N, 112.129°W
Report Text: KRYN 310245Z 18004KT 10SM CLR 25/06 A3001
Loading
Personal Weather Stations






























Interactive Weather Map
Tropical Storm Tracking
New forecast layout! Learn more

10-Day Weather Forecast

Advertisements
Track Severe Weather on mobile